sensor_id;sensor_type;location;lat;lon;timestamp;temperature;humidity
75621;DHT22;64574;48.506;-2.750;2023-04-25T16:33:57;12.40;63.20
75621;DHT22;64574;48.506;-2.750;2023-04-25T16:36:23;11.90;65.00
75621;DHT22;64574;48.506;-2.750;2023-04-25T16:38:49;11.80;65.70
75621;DHT22;64574;48.506;-2.750;2023-04-25T16:41:14;11.80;65.90
75621;DHT22;64574;48.506;-2.750;2023-04-25T16:43:40;11.90;65.60
75621;DHT22;64574;48.506;-2.750;2023-04-25T16:46:06;12.00;65.60
75621;DHT22;64574;48.506;-2.750;2023-04-25T16:48:31;12.10;64.60
75621;DHT22;64574;48.506;-2.750;2023-04-25T16:50:57;12.10;62.20
75621;DHT22;64574;48.506;-2.750;2023-04-25T16:53:23;12.00;61.70
75621;DHT22;64574;48.506;-2.750;2023-04-25T16:55:49;12.00;63.30
75621;DHT22;64574;48.506;-2.750;2023-04-25T16:58:15;12.00;64.00
75621;DHT22;64574;48.506;-2.750;2023-04-25T17:00:41;12.00;64.40
75621;DHT22;64574;48.506;-2.750;2023-04-25T17:03:07;11.90;64.20
75621;DHT22;64574;48.506;-2.750;2023-04-25T17:05:33;11.90;64.20
75621;DHT22;64574;48.506;-2.750;2023-04-25T17:07:59;11.90;64.20
75621;DHT22;64574;48.506;-2.750;2023-04-25T17:10:25;11.90;64.40
75621;DHT22;64574;48.506;-2.750;2023-04-25T17:12:51;11.90;64.30
75621;DHT22;64574;48.506;-2.750;2023-04-25T17:15:17;12.00;64.40
75621;DHT22;64574;48.506;-2.750;2023-04-25T17:17:42;12.00;64.50
75621;DHT22;64574;48.506;-2.750;2023-04-25T17:20:08;12.00;64.70
75621;DHT22;64574;48.506;-2.750;2023-04-25T17:22:35;11.90;64.60
75621;DHT22;64574;48.506;-2.750;2023-04-25T17:25:04;11.90;64.80
75621;DHT22;64574;48.506;-2.750;2023-04-25T17:27:30;11.90;65.10
75621;DHT22;64574;48.506;-2.750;2023-04-25T17:29:56;11.90;65.20
75621;DHT22;64574;48.506;-2.750;2023-04-25T17:32:22;11.80;65.20
75621;DHT22;64574;48.506;-2.750;2023-04-25T17:34:47;11.90;65.60
75621;DHT22;64574;48.506;-2.750;2023-04-25T17:37:16;11.90;64.80
75621;DHT22;64574;48.506;-2.750;2023-04-25T17:39:42;11.80;64.80
75621;DHT22;64574;48.506;-2.750;2023-04-25T17:42:08;11.90;64.80
75621;DHT22;64574;48.506;-2.750;2023-04-25T17:44:34;11.70;64.80
75621;DHT22;64574;48.506;-2.750;2023-04-25T17:47:00;11.60;65.20
75621;DHT22;64574;48.506;-2.750;2023-04-25T17:49:26;11.70;65.60
75621;DHT22;64574;48.506;-2.750;2023-04-25T17:51:52;11.70;65.50
75621;DHT22;64574;48.506;-2.750;2023-04-25T17:54:18;11.70;65.60
75621;DHT22;64574;48.506;-2.750;2023-04-25T17:56:46;11.60;65.70
75621;DHT22;64574;48.506;-2.750;2023-04-25T17:59:12;11.70;65.60
75621;DHT22;64574;48.506;-2.750;2023-04-25T18:01:38;11.70;65.50
75621;DHT22;64574;48.506;-2.750;2023-04-25T18:04:04;11.70;65.60
75621;DHT22;64574;48.506;-2.750;2023-04-25T18:06:30;11.70;65.50
75621;DHT22;64574;48.506;-2.750;2023-04-25T18:08:57;11.70;65.60
75621;DHT22;64574;48.506;-2.750;2023-04-25T18:11:24;11.70;65.50
75621;DHT22;64574;48.506;-2.750;2023-04-25T18:13:50;11.70;65.50
75621;DHT22;64574;48.506;-2.750;2023-04-25T18:16:15;11.70;65.70
75621;DHT22;64574;48.506;-2.750;2023-04-25T18:18:41;11.70;65.80
75621;DHT22;64574;48.506;-2.750;2023-04-25T18:21:08;11.60;66.00
75621;DHT22;64574;48.506;-2.750;2023-04-25T18:23:34;11.70;66.10
75621;DHT22;64574;48.506;-2.750;2023-04-25T18:26:01;11.60;66.00
75621;DHT22;64574;48.506;-2.750;2023-04-25T18:28:28;11.50;66.20
75621;DHT22;64574;48.506;-2.750;2023-04-25T18:30:54;11.60;66.30
75621;DHT22;64574;48.506;-2.750;2023-04-25T18:33:20;11.70;66.30
75621;DHT22;64574;48.506;-2.750;2023-04-25T18:35:46;11.70;66.20
75621;DHT22;64574;48.506;-2.750;2023-04-25T18:38:13;11.70;66.40
75621;DHT22;64574;48.506;-2.750;2023-04-25T18:40:39;11.70;66.40
75621;DHT22;64574;48.506;-2.750;2023-04-25T18:43:04;11.70;66.40
75621;DHT22;64574;48.506;-2.750;2023-04-25T18:45:30;11.70;66.60
75621;DHT22;64574;48.506;-2.750;2023-04-25T18:47:55;11.70;66.80
75621;DHT22;64574;48.506;-2.750;2023-04-25T18:50:21;11.70;66.90
75621;DHT22;64574;48.506;-2.750;2023-04-25T18:52:48;11.70;67.20
75621;DHT22;64574;48.506;-2.750;2023-04-25T18:55:13;11.70;67.20
75621;DHT22;64574;48.506;-2.750;2023-04-25T18:57:39;11.70;67.20
75621;DHT22;64574;48.506;-2.750;2023-04-25T19:00:05;11.70;67.20
75621;DHT22;64574;48.506;-2.750;2023-04-25T19:02:35;11.70;67.30
75621;DHT22;64574;48.506;-2.750;2023-04-25T19:05:01;11.60;67.50
75621;DHT22;64574;48.506;-2.750;2023-04-25T19:07:28;11.60;67.70
75621;DHT22;64574;48.506;-2.750;2023-04-25T19:09:55;11.60;67.70
75621;DHT22;64574;48.506;-2.750;2023-04-25T19:12:21;11.60;67.70
75621;DHT22;64574;48.506;-2.750;2023-04-25T19:14:47;11.50;67.70
75621;DHT22;64574;48.506;-2.750;2023-04-25T19:17:14;11.60;67.60
75621;DHT22;64574;48.506;-2.750;2023-04-25T19:19:40;11.60;67.80
75621;DHT22;64574;48.506;-2.750;2023-04-25T19:22:06;11.50;67.80
75621;DHT22;64574;48.506;-2.750;2023-04-25T19:24:32;11.50;67.80
75621;DHT22;64574;48.506;-2.750;2023-04-25T19:26:57;11.50;68.00
75621;DHT22;64574;48.506;-2.750;2023-04-25T19:29:23;11.60;68.60
75621;DHT22;64574;48.506;-2.750;2023-04-25T19:31:49;11.50;69.10
75621;DHT22;64574;48.506;-2.750;2023-04-25T19:34:14;11.60;70.00
75621;DHT22;64574;48.506;-2.750;2023-04-25T19:36:41;11.60;70.20
75621;DHT22;64574;48.506;-2.750;2023-04-25T19:39:07;11.60;70.50
75621;DHT22;64574;48.506;-2.750;2023-04-25T19:41:35;11.50;70.70
75621;DHT22;64574;48.506;-2.750;2023-04-25T19:44:05;11.50;70.40
75621;DHT22;64574;48.506;-2.750;2023-04-25T19:46:32;11.50;70.80
75621;DHT22;64574;48.506;-2.750;2023-04-25T19:48:58;11.50;71.20
75621;DHT22;64574;48.506;-2.750;2023-04-25T19:51:24;11.50;71.20
75621;DHT22;64574;48.506;-2.750;2023-04-25T19:53:52;11.50;71.30
75621;DHT22;64574;48.506;-2.750;2023-04-25T19:56:18;11.50;71.20
75621;DHT22;64574;48.506;-2.750;2023-04-25T19:58:44;11.40;71.20
75621;DHT22;64574;48.506;-2.750;2023-04-25T20:01:10;11.40;71.30
75621;DHT22;64574;48.506;-2.750;2023-04-25T20:03:35;11.40;71.40
75621;DHT22;64574;48.506;-2.750;2023-04-25T20:06:01;11.40;71.50
75621;DHT22;64574;48.506;-2.750;2023-04-25T20:08:26;11.40;71.50
75621;DHT22;64574;48.506;-2.750;2023-04-25T20:10:52;11.50;71.70
75621;DHT22;64574;48.506;-2.750;2023-04-25T20:13:18;11.40;71.70
75621;DHT22;64574;48.506;-2.750;2023-04-25T20:15:43;11.40;72.00
75621;DHT22;64574;48.506;-2.750;2023-04-25T20:18:09;11.30;72.10
75621;DHT22;64574;48.506;-2.750;2023-04-25T20:20:36;11.30;72.40
75621;DHT22;64574;48.506;-2.750;2023-04-25T20:23:04;11.30;72.50
75621;DHT22;64574;48.506;-2.750;2023-04-25T20:25:31;11.30;72.40
75621;DHT22;64574;48.506;-2.750;2023-04-25T20:27:56;11.30;72.50
75621;DHT22;64574;48.506;-2.750;2023-04-25T20:30:22;11.40;72.50
75621;DHT22;64574;48.506;-2.750;2023-04-25T20:32:48;11.30;72.30
75621;DHT22;64574;48.506;-2.750;2023-04-25T20:35:14;11.30;72.20
75621;DHT22;64574;48.506;-2.750;2023-04-25T20:37:40;11.30;72.20
75621;DHT22;64574;48.506;-2.750;2023-04-25T20:40:07;11.40;72.00
75621;DHT22;64574;48.506;-2.750;2023-04-25T20:42:36;11.30;72.00
75621;DHT22;64574;48.506;-2.750;2023-04-25T20:45:02;11.30;71.70
75621;DHT22;64574;48.506;-2.750;2023-04-25T20:47:33;11.30;71.80
75621;DHT22;64574;48.506;-2.750;2023-04-25T20:49:58;11.30;71.80
75621;DHT22;64574;48.506;-2.750;2023-04-25T20:52:24;11.40;71.60
75621;DHT22;64574;48.506;-2.750;2023-04-25T20:54:50;11.40;71.50
75621;DHT22;64574;48.506;-2.750;2023-04-25T20:57:16;11.40;71.20
75621;DHT22;64574;48.506;-2.750;2023-04-25T20:59:42;11.30;70.90
75621;DHT22;64574;48.506;-2.750;2023-04-25T21:02:11;11.30;71.00
75621;DHT22;64574;48.506;-2.750;2023-04-25T21:04:36;11.30;71.00
75621;DHT22;64574;48.506;-2.750;2023-04-25T21:07:02;11.30;71.00
75621;DHT22;64574;48.506;-2.750;2023-04-25T21:09:28;11.30;71.00
75621;DHT22;64574;48.506;-2.750;2023-04-25T21:11:53;11.30;70.90
75621;DHT22;64574;48.506;-2.750;2023-04-25T21:14:19;11.30;70.80
75621;DHT22;64574;48.506;-2.750;2023-04-25T21:16:45;11.30;70.40
75621;DHT22;64574;48.506;-2.750;2023-04-25T21:19:10;11.30;70.40
75621;DHT22;64574;48.506;-2.750;2023-04-25T21:21:36;11.30;70.50
75621;DHT22;64574;48.506;-2.750;2023-04-25T21:24:02;11.30;70.00
75621;DHT22;64574;48.506;-2.750;2023-04-25T21:26:28;11.30;70.00
75621;DHT22;64574;48.506;-2.750;2023-04-25T21:28:53;11.30;69.70
75621;DHT22;64574;48.506;-2.750;2023-04-25T21:31:19;11.30;69.90
75621;DHT22;64574;48.506;-2.750;2023-04-25T21:33:44;11.30;70.00
75621;DHT22;64574;48.506;-2.750;2023-04-25T21:36:10;11.40;69.50
75621;DHT22;64574;48.506;-2.750;2023-04-25T21:38:36;11.40;69.40
75621;DHT22;64574;48.506;-2.750;2023-04-25T21:41:02;11.30;69.60
75621;DHT22;64574;48.506;-2.750;2023-04-25T21:43:27;11.30;69.90
75621;DHT22;64574;48.506;-2.750;2023-04-25T21:45:53;11.40;70.00
75621;DHT22;64574;48.506;-2.750;2023-04-25T21:48:19;11.40;70.00
75621;DHT22;64574;48.506;-2.750;2023-04-25T21:50:45;11.40;70.20
75621;DHT22;64574;48.506;-2.750;2023-04-25T21:53:11;11.30;70.20
75621;DHT22;64574;48.506;-2.750;2023-04-25T21:55:37;11.30;70.20
75621;DHT22;64574;48.506;-2.750;2023-04-25T21:58:02;11.30;69.90
75621;DHT22;64574;48.506;-2.750;2023-04-25T22:00:28;11.30;70.20
75621;DHT22;64574;48.506;-2.750;2023-04-25T22:02:56;11.30;70.10
75621;DHT22;64574;48.506;-2.750;2023-04-25T22:05:22;11.20;70.10
75621;DHT22;64574;48.506;-2.750;2023-04-25T22:07:52;11.10;70.50
75621;DHT22;64574;48.506;-2.750;2023-04-25T22:10:19;11.10;70.80
75621;DHT22;64574;48.506;-2.750;2023-04-25T22:12:45;11.10;71.10
75621;DHT22;64574;48.506;-2.750;2023-04-25T22:15:18;11.20;71.10
75621;DHT22;64574;48.506;-2.750;2023-04-25T22:17:45;11.10;71.20
75621;DHT22;64574;48.506;-2.750;2023-04-25T22:20:12;11.10;71.20
75621;DHT22;64574;48.506;-2.750;2023-04-25T22:22:41;11.10;71.40
75621;DHT22;64574;48.506;-2.750;2023-04-25T22:25:08;11.10;71.40
75621;DHT22;64574;48.506;-2.750;2023-04-25T22:27:34;11.10;71.50
75621;DHT22;64574;48.506;-2.750;2023-04-25T22:30:00;11.10;71.60
75621;DHT22;64574;48.506;-2.750;2023-04-25T22:32:26;11.10;71.80
75621;DHT22;64574;48.506;-2.750;2023-04-25T22:34:52;11.00;71.90
75621;DHT22;64574;48.506;-2.750;2023-04-25T22:37:18;11.10;71.90
75621;DHT22;64574;48.506;-2.750;2023-04-25T22:39:44;11.10;71.80
75621;DHT22;64574;48.506;-2.750;2023-04-25T22:42:10;11.10;71.80
75621;DHT22;64574;48.506;-2.750;2023-04-25T22:44:35;11.10;71.80
75621;DHT22;64574;48.506;-2.750;2023-04-25T22:47:01;11.10;71.80
75621;DHT22;64574;48.506;-2.750;2023-04-25T22:49:27;11.10;71.70
75621;DHT22;64574;48.506;-2.750;2023-04-25T22:51:52;11.10;71.60
75621;DHT22;64574;48.506;-2.750;2023-04-25T22:54:20;11.10;71.60
75621;DHT22;64574;48.506;-2.750;2023-04-25T22:56:46;11.10;71.50
75621;DHT22;64574;48.506;-2.750;2023-04-25T22:59:11;11.10;71.50
75621;DHT22;64574;48.506;-2.750;2023-04-25T23:01:37;11.10;71.50
75621;DHT22;64574;48.506;-2.750;2023-04-25T23:04:03;11.10;71.30
75621;DHT22;64574;48.506;-2.750;2023-04-25T23:06:29;11.10;71.20
75621;DHT22;64574;48.506;-2.750;2023-04-25T23:08:55;11.10;71.20
75621;DHT22;64574;48.506;-2.750;2023-04-25T23:11:20;11.10;71.20
75621;DHT22;64574;48.506;-2.750;2023-04-25T23:13:47;11.00;70.90
75621;DHT22;64574;48.506;-2.750;2023-04-25T23:16:13;11.00;71.10
75621;DHT22;64574;48.506;-2.750;2023-04-25T23:18:39;11.00;71.20
75621;DHT22;64574;48.506;-2.750;2023-04-25T23:21:06;11.00;71.20
75621;DHT22;64574;48.506;-2.750;2023-04-25T23:23:34;11.00;71.30
75621;DHT22;64574;48.506;-2.750;2023-04-25T23:26:00;11.00;71.20
75621;DHT22;64574;48.506;-2.750;2023-04-25T23:28:25;11.00;71.00
75621;DHT22;64574;48.506;-2.750;2023-04-25T23:30:51;11.00;71.10
75621;DHT22;64574;48.506;-2.750;2023-04-25T23:33:17;11.00;71.00
75621;DHT22;64574;48.506;-2.750;2023-04-25T23:35:43;11.00;71.10
75621;DHT22;64574;48.506;-2.750;2023-04-25T23:38:08;11.00;71.10
75621;DHT22;64574;48.506;-2.750;2023-04-25T23:40:34;11.10;71.10
75621;DHT22;64574;48.506;-2.750;2023-04-25T23:43:00;11.10;71.00
75621;DHT22;64574;48.506;-2.750;2023-04-25T23:45:27;11.00;71.00
75621;DHT22;64574;48.506;-2.750;2023-04-25T23:47:53;11.00;71.20
75621;DHT22;64574;48.506;-2.750;2023-04-25T23:50:19;11.00;71.40
75621;DHT22;64574;48.506;-2.750;2023-04-25T23:52:44;11.00;71.60
75621;DHT22;64574;48.506;-2.750;2023-04-25T23:55:10;10.90;71.40
75621;DHT22;64574;48.506;-2.750;2023-04-25T23:57:36;10.90;71.60
